createdAt,value
2024-01-09T00:01:29.601Z,-17.42
2024-01-09T00:03:57.258Z,-17.33
2024-01-09T00:06:25.118Z,-17.26
2024-01-09T00:08:52.928Z,-17.21
2024-01-09T00:11:20.602Z,-17.19
2024-01-09T00:13:48.341Z,-17.19
2024-01-09T00:16:15.997Z,-17.18
2024-01-09T00:18:43.695Z,-17.19
2024-01-09T00:21:11.408Z,-17.21
2024-01-09T00:23:39.151Z,-17.22
2024-01-09T00:26:07.038Z,-17.26
2024-01-09T00:28:34.682Z,-17.32
2024-01-09T00:31:02.389Z,-17.38
2024-01-09T00:33:30.490Z,-17.40
2024-01-09T00:35:58.250Z,-17.40
2024-01-09T00:38:26.042Z,-17.43
2024-01-09T00:40:53.752Z,-17.42
2024-01-09T00:43:21.415Z,-17.43
2024-01-09T00:45:49.094Z,-17.46
2024-01-09T00:48:16.929Z,-17.49
2024-01-09T00:50:44.866Z,-17.49
2024-01-09T00:53:12.527Z,-17.48
2024-01-09T00:55:40.242Z,-17.50
2024-01-09T00:58:07.875Z,-17.52
2024-01-09T01:00:35.544Z,-17.53
2024-01-09T01:03:03.317Z,-17.54
2024-01-09T01:05:31.096Z,-17.57
2024-01-09T01:07:58.745Z,-17.59
2024-01-09T01:10:26.393Z,-17.62
2024-01-09T01:12:54.039Z,-17.65
2024-01-09T01:15:21.672Z,-17.69
2024-01-09T01:17:49.376Z,-17.73
2024-01-09T01:20:17.246Z,-17.78
2024-01-09T01:22:44.947Z,-17.84
2024-01-09T01:25:12.618Z,-17.87
2024-01-09T01:27:40.255Z,-17.89
2024-01-09T01:30:08.614Z,-17.96
2024-01-09T01:32:36.479Z,-18.00
2024-01-09T01:35:04.578Z,-18.05
2024-01-09T01:37:32.368Z,-18.09
2024-01-09T01:40:00.006Z,-18.14
2024-01-09T01:42:27.701Z,-18.19
2024-01-09T01:44:55.350Z,-18.23
2024-01-09T01:47:23.432Z,-18.28
2024-01-09T01:49:52.011Z,-18.33
2024-01-09T01:52:20.397Z,-18.37
2024-01-09T01:54:48.129Z,-18.43
2024-01-09T01:57:16.209Z,-18.49
2024-01-09T01:59:46.753Z,-18.53
2024-01-09T02:02:15.531Z,-18.58
2024-01-09T02:04:44.671Z,-18.61
2024-01-09T02:07:12.475Z,-18.65
2024-01-09T02:09:40.501Z,-18.67
2024-01-09T02:12:08.748Z,-18.69
2024-01-09T02:14:36.442Z,-18.71
2024-01-09T02:17:04.622Z,-18.73
2024-01-09T02:19:32.410Z,-18.76
2024-01-09T02:22:00.053Z,-18.78
2024-01-09T02:24:27.718Z,-18.81
2024-01-09T02:27:06.758Z,-18.83
2024-01-09T02:29:36.267Z,-18.86
2024-01-09T02:32:05.646Z,-18.91
2024-01-09T02:34:35.152Z,-18.94
2024-01-09T02:37:02.926Z,-18.98
2024-01-09T02:39:30.628Z,-19.02
2024-01-09T02:41:58.392Z,-19.04
2024-01-09T02:44:26.111Z,-19.09
2024-01-09T02:46:53.783Z,-19.13
2024-01-09T02:49:21.486Z,-19.18
2024-01-09T02:51:49.163Z,-19.23
2024-01-09T02:54:16.797Z,-19.29
2024-01-09T02:56:44.891Z,-19.33
2024-01-09T02:59:12.612Z,-19.38
2024-01-09T03:01:40.268Z,-19.41
2024-01-09T03:04:07.924Z,-19.42
2024-01-09T03:06:35.800Z,-19.43
2024-01-09T03:09:03.595Z,-19.44
2024-01-09T03:11:31.319Z,-19.46
2024-01-09T03:13:59.093Z,-19.49
2024-01-09T03:16:26.728Z,-19.52
2024-01-09T03:18:54.472Z,-19.54
2024-01-09T03:21:22.207Z,-19.56
2024-01-09T03:23:49.924Z,-19.57
2024-01-09T03:26:17.636Z,-19.58
2024-01-09T03:28:45.315Z,-19.58
2024-01-09T03:31:23.225Z,-19.60
2024-01-09T03:33:51.843Z,-19.63
2024-01-09T03:36:19.575Z,-19.67
2024-01-09T03:38:47.323Z,-19.72
2024-01-09T03:41:15.117Z,-19.76
2024-01-09T03:43:42.848Z,-19.80
2024-01-09T03:46:10.590Z,-19.82
2024-01-09T03:48:38.408Z,-19.83
2024-01-09T03:51:06.272Z,-19.84
2024-01-09T03:53:34.141Z,-19.86
2024-01-09T03:56:01.802Z,-19.89
2024-01-09T03:58:29.485Z,-19.92
2024-01-09T04:00:57.236Z,-19.95
2024-01-09T04:03:25.072Z,-19.96
2024-01-09T04:05:52.808Z,-19.97
2024-01-09T04:08:20.588Z,-19.97
2024-01-09T04:10:48.241Z,-19.98
2024-01-09T04:13:16.040Z,-20.02
2024-01-09T04:15:43.708Z,-20.05
2024-01-09T04:18:11.544Z,-20.09
2024-01-09T04:20:40.298Z,-20.13
2024-01-09T04:23:07.960Z,-20.16
2024-01-09T04:25:35.616Z,-20.19
2024-01-09T04:28:03.429Z,-20.20
2024-01-09T04:30:31.096Z,-20.21
2024-01-09T04:32:59.012Z,-20.21
2024-01-09T04:35:26.805Z,-20.21
2024-01-09T04:37:54.482Z,-20.22
2024-01-09T04:40:22.126Z,-20.23
2024-01-09T04:42:49.770Z,-20.24
2024-01-09T04:45:17.568Z,-20.25
2024-01-09T04:47:45.332Z,-20.26
2024-01-09T04:50:13.066Z,-20.25
2024-01-09T04:52:40.769Z,-20.24
2024-01-09T04:55:09.137Z,-20.24
2024-01-09T04:57:36.803Z,-20.23
2024-01-09T05:00:05.962Z,-20.23
2024-01-09T05:02:33.943Z,-20.24
2024-01-09T05:05:02.748Z,-20.24
2024-01-09T05:07:30.954Z,-20.25
2024-01-09T05:09:58.592Z,-20.26
2024-01-09T05:12:26.259Z,-20.27
2024-01-09T05:14:53.970Z,-20.29
2024-01-09T05:17:21.755Z,-20.29
2024-01-09T05:19:50.729Z,-20.28
2024-01-09T05:22:20.816Z,-20.24
2024-01-09T05:24:48.444Z,-20.22
2024-01-09T05:27:16.090Z,-20.19
2024-01-09T05:29:43.742Z,-20.18
2024-01-09T05:32:11.468Z,-20.15
2024-01-09T05:34:39.135Z,-20.13
2024-01-09T05:37:06.828Z,-20.11
2024-01-09T05:39:34.492Z,-20.10
2024-01-09T05:42:02.189Z,-20.12
2024-01-09T05:44:29.866Z,-20.14
2024-01-09T05:46:57.546Z,-20.15
2024-01-09T05:49:25.236Z,-20.17
2024-01-09T05:51:52.953Z,-20.18
2024-01-09T05:54:20.600Z,-20.19
2024-01-09T05:56:48.372Z,-20.20
2024-01-09T05:59:16.071Z,-20.19
2024-01-09T06:01:43.734Z,-20.19
2024-01-09T06:04:11.761Z,-20.17
2024-01-09T06:06:39.538Z,-20.13
2024-01-09T06:09:07.225Z,-20.10
2024-01-09T06:11:35.046Z,-20.06
2024-01-09T06:14:02.721Z,-20.01
2024-01-09T06:16:30.431Z,-19.94
2024-01-09T06:18:58.192Z,-19.88
2024-01-09T06:21:25.940Z,-19.84
2024-01-09T06:23:53.730Z,-19.80
2024-01-09T06:26:21.480Z,-19.76
2024-01-09T06:28:49.203Z,-19.72
2024-01-09T06:31:16.905Z,-19.69
2024-01-09T06:33:44.790Z,-19.64
2024-01-09T06:36:12.518Z,-19.58
2024-01-09T06:38:41.066Z,-19.51
2024-01-09T06:41:08.697Z,-19.40
2024-01-09T06:43:36.342Z,-19.24
2024-01-09T06:46:04.140Z,-19.05
2024-01-09T06:48:32.010Z,-18.90
2024-01-09T06:50:59.827Z,-18.80
2024-01-09T06:53:27.735Z,-18.70
2024-01-09T06:55:55.470Z,-18.61
2024-01-09T06:58:23.130Z,-18.44
2024-01-09T07:00:50.836Z,-18.26
2024-01-09T07:03:18.589Z,-18.20
2024-01-09T07:05:46.465Z,-18.16
2024-01-09T07:08:14.240Z,-18.16
2024-01-09T07:10:41.931Z,-18.15
2024-01-09T07:13:09.619Z,-18.14
2024-01-09T07:15:37.284Z,-18.13
2024-01-09T07:18:05.299Z,-18.07
2024-01-09T07:20:33.276Z,-18.00
2024-01-09T07:23:09.333Z,-17.95
2024-01-09T07:25:44.514Z,-17.87
2024-01-09T07:28:12.201Z,-17.72
2024-01-09T07:30:39.888Z,-17.55
2024-01-09T07:33:07.740Z,-17.42
2024-01-09T07:35:35.622Z,-17.28
2024-01-09T07:38:03.497Z,-17.20
2024-01-09T07:40:31.144Z,-17.11
2024-01-09T07:43:01.137Z,-17.02
2024-01-09T07:45:29.420Z,-16.94
2024-01-09T07:47:57.766Z,-16.86
2024-01-09T07:50:25.503Z,-16.74
2024-01-09T07:52:53.176Z,-16.62
2024-01-09T07:55:20.840Z,-16.52
2024-01-09T07:57:48.495Z,-16.45
2024-01-09T08:00:16.450Z,-16.39
2024-01-09T08:02:44.119Z,-16.31
2024-01-09T08:05:11.890Z,-16.23
2024-01-09T08:07:39.569Z,-16.17
2024-01-09T08:10:07.708Z,-16.09
2024-01-09T08:12:35.354Z,-16.02
2024-01-09T08:15:03.450Z,-15.96
2024-01-09T08:17:31.204Z,-15.91
2024-01-09T08:19:58.972Z,-15.83
2024-01-09T08:22:26.725Z,-15.73
2024-01-09T08:24:54.404Z,-15.66
2024-01-09T08:27:22.070Z,-15.59
2024-01-09T08:29:49.767Z,-15.48
2024-01-09T08:32:17.506Z,-15.32
2024-01-09T08:34:45.296Z,-15.14
2024-01-09T08:37:13.058Z,-14.97
2024-01-09T08:39:40.762Z,-14.83
2024-01-09T08:42:08.447Z,-14.71
2024-01-09T08:44:36.218Z,-14.63
2024-01-09T08:47:04.109Z,-14.57
2024-01-09T08:49:31.798Z,-14.53
2024-01-09T08:51:59.486Z,-14.52
2024-01-09T08:54:27.213Z,-14.45
2024-01-09T08:56:55.083Z,-14.35
2024-01-09T08:59:22.806Z,-14.27
2024-01-09T09:01:50.463Z,-14.20
2024-01-09T09:04:18.207Z,-14.12
2024-01-09T09:06:46.060Z,-14.04
2024-01-09T09:09:13.912Z,-13.94
2024-01-09T09:11:41.637Z,-13.80
2024-01-09T09:14:09.309Z,-13.69
2024-01-09T09:16:36.947Z,-13.56
2024-01-09T09:19:04.647Z,-13.44
2024-01-09T09:21:32.502Z,-13.32
2024-01-09T09:24:00.220Z,-13.21
2024-01-09T09:26:28.406Z,-13.12
2024-01-09T09:29:04.184Z,-13.03
2024-01-09T09:31:39.867Z,-12.94
2024-01-09T09:34:08.386Z,-12.87
2024-01-09T09:36:36.252Z,-12.74
2024-01-09T09:39:04.381Z,-12.57
2024-01-09T09:41:34.319Z,-12.39
2024-01-09T09:44:03.885Z,-12.21
2024-01-09T09:46:35.154Z,-12.06
2024-01-09T09:49:03.271Z,-11.97
2024-01-09T09:51:31.104Z,-11.85
2024-01-09T09:53:59.852Z,-11.73
2024-01-09T09:56:28.915Z,-11.61
2024-01-09T09:58:56.622Z,-11.53
2024-01-09T10:01:25.167Z,-11.42
2024-01-09T10:04:01.985Z,-11.33
2024-01-09T10:06:30.697Z,-11.23
2024-01-09T10:09:02.700Z,-11.14
2024-01-09T10:11:33.028Z,-11.04
2024-01-09T10:14:01.336Z,-10.95
2024-01-09T10:16:28.944Z,-10.86
2024-01-09T10:18:56.834Z,-10.78
2024-01-09T10:21:24.672Z,-10.70
2024-01-09T10:23:55.383Z,-10.63
2024-01-09T10:26:24.044Z,-10.58
2024-01-09T10:28:52.145Z,-10.49
2024-01-09T10:31:19.854Z,-10.39
2024-01-09T10:33:47.811Z,-10.29
2024-01-09T10:36:15.649Z,-10.20
2024-01-09T10:38:44.868Z,-10.10
2024-01-09T10:41:16.382Z,-10.02
2024-01-09T10:43:44.769Z,-9.91
2024-01-09T10:46:12.540Z,-9.80
2024-01-09T10:48:42.289Z,-9.69
2024-01-09T10:51:11.919Z,-9.59
2024-01-09T10:53:40.304Z,-9.49
2024-01-09T10:56:10.355Z,-9.40
2024-01-09T10:58:39.115Z,-9.30
2024-01-09T11:01:09.221Z,-9.24
2024-01-09T11:03:50.850Z,-9.16
2024-01-09T11:06:19.125Z,-9.07
2024-01-09T11:08:50.824Z,-8.99
2024-01-09T11:11:21.107Z,-8.88
2024-01-09T11:13:53.979Z,-8.78
2024-01-09T11:16:24.701Z,-8.70
2024-01-09T11:18:53.923Z,-8.61
2024-01-09T11:21:24.974Z,-8.52
2024-01-09T11:23:52.976Z,-8.44
2024-01-09T11:26:20.846Z,-8.34
2024-01-09T11:28:48.788Z,-8.24
2024-01-09T11:31:17.734Z,-8.13
2024-01-09T11:33:45.678Z,-8.03
2024-01-09T11:36:13.729Z,-7.94
2024-01-09T11:38:41.512Z,-7.85
2024-01-09T11:41:09.964Z,-7.74
2024-01-09T11:44:06.295Z,-7.62
2024-01-09T11:46:37.706Z,-7.48
2024-01-09T11:49:07.526Z,-7.39
2024-01-09T11:51:36.020Z,-7.31
2024-01-09T11:54:05.509Z,-7.22
2024-01-09T11:56:33.813Z,-7.12
2024-01-09T11:59:01.661Z,-7.03
2024-01-09T12:01:29.430Z,-6.97
2024-01-09T12:03:58.490Z,-6.89
2024-01-09T12:06:27.847Z,-6.81
2024-01-09T12:08:55.634Z,-6.73
2024-01-09T12:11:23.482Z,-6.66
2024-01-09T12:14:01.946Z,-6.57
2024-01-09T12:16:31.640Z,-6.46
2024-01-09T12:19:00.602Z,-6.37
2024-01-09T12:21:31.134Z,-6.30
2024-01-09T12:24:18.204Z,-6.20
2024-01-09T12:26:48.234Z,-6.11
2024-01-09T12:29:16.313Z,-6.05
2024-01-09T12:31:44.617Z,-5.99
2024-01-09T12:34:12.880Z,-5.92
2024-01-09T12:36:41.000Z,-5.85
2024-01-09T12:39:08.943Z,-5.78
2024-01-09T12:41:36.653Z,-5.73
2024-01-09T12:44:14.593Z,-5.71
2024-01-09T12:46:43.395Z,-5.70
2024-01-09T12:49:20.602Z,-5.68
2024-01-09T12:51:48.333Z,-5.64
2024-01-09T12:54:17.266Z,-5.61
2024-01-09T12:56:45.271Z,-5.57
2024-01-09T12:59:13.200Z,-5.54
2024-01-09T13:01:41.220Z,-5.53
2024-01-09T13:04:09.000Z,-5.50
2024-01-09T13:06:40.249Z,-5.48
2024-01-09T13:09:09.996Z,-5.47
2024-01-09T13:11:42.559Z,-5.46
2024-01-09T13:14:11.724Z,-5.42
2024-01-09T13:16:39.847Z,-5.41
2024-01-09T13:19:08.267Z,-5.40
2024-01-09T13:23:38.550Z,-5.39
2024-01-09T13:24:23.820Z,-5.35
2024-01-09T13:26:51.625Z,-5.36
2024-01-09T13:30:46.080Z,-5.34
2024-01-09T13:32:07.396Z,-5.27
2024-01-09T13:34:35.177Z,-5.03
2024-01-09T13:37:02.873Z,-3.54
2024-01-09T13:39:30.932Z,-1.45
2024-01-09T13:41:58.572Z,0.48
2024-01-09T13:44:46.659Z,2.22
2024-01-09T13:47:14.362Z,3.90
2024-01-09T13:52:12.756Z,5.88
2024-01-09T13:54:40.450Z,6.58
2024-01-09T13:57:08.127Z,7.22
2024-01-09T13:59:37.513Z,7.86
2024-01-09T14:02:07.943Z,8.22
2024-01-09T14:04:35.718Z,8.33
2024-01-09T14:07:03.578Z,8.46
2024-01-09T14:09:31.219Z,8.27
2024-01-09T14:11:58.856Z,7.85
2024-01-09T14:14:26.550Z,7.29
2024-01-09T14:16:54.273Z,6.46
2024-01-09T14:19:25.276Z,5.33
2024-01-09T14:21:53.475Z,4.18
2024-01-09T14:24:21.146Z,3.04
2024-01-09T14:26:48.864Z,1.85
2024-01-09T14:29:16.596Z,0.86
2024-01-09T14:31:44.277Z,0.10
2024-01-09T14:34:11.938Z,-0.62
2024-01-09T14:36:39.654Z,-1.37
2024-01-09T14:39:07.345Z,-2.17
2024-01-09T14:41:35.054Z,-2.89
2024-01-09T14:44:02.734Z,-3.57
2024-01-09T14:46:30.475Z,-4.18
2024-01-09T14:48:58.323Z,-4.81
2024-01-09T14:51:26.090Z,-5.36
2024-01-09T14:53:53.688Z,-5.87
2024-01-09T14:56:21.964Z,-6.32
2024-01-09T15:01:35.037Z,-7.13
2024-01-09T15:04:02.940Z,-7.44
2024-01-09T15:06:30.640Z,-7.71
2024-01-09T15:08:58.302Z,-7.95
2024-01-09T15:11:27.511Z,-8.16
2024-01-09T15:13:55.307Z,-8.31
2024-01-09T15:16:23.009Z,-8.47
2024-01-09T15:18:50.684Z,-8.58
2024-01-09T15:21:18.625Z,-8.65
2024-01-09T15:23:46.889Z,-8.77
2024-01-09T15:26:14.585Z,-8.92
2024-01-09T15:28:42.358Z,-9.07
2024-01-09T15:31:10.204Z,-9.21
2024-01-09T15:33:38.016Z,-9.36
2024-01-09T15:36:06.017Z,-9.48
2024-01-09T15:38:33.831Z,-9.61
2024-01-09T15:41:04.781Z,-9.75
2024-01-09T15:43:32.656Z,-9.89
2024-01-09T15:46:00.337Z,-10.01
2024-01-09T15:48:28.083Z,-10.12
2024-01-09T15:50:56.526Z,-10.21
2024-01-09T15:53:24.291Z,-10.32
2024-01-09T15:55:52.024Z,-10.42
2024-01-09T15:58:19.940Z,-10.53
2024-01-09T16:00:47.593Z,-10.65
2024-01-09T16:03:15.399Z,-10.77
2024-01-09T16:05:43.196Z,-10.91
2024-01-09T16:08:11.845Z,-11.02
2024-01-09T16:10:39.648Z,-11.14
2024-01-09T16:13:07.461Z,-11.26
2024-01-09T16:15:38.436Z,-11.38
2024-01-09T16:18:06.779Z,-11.49
2024-01-09T16:20:34.681Z,-11.60
2024-01-09T16:23:02.389Z,-11.71
2024-01-09T16:25:30.625Z,-11.80
2024-01-09T16:27:58.338Z,-11.87
2024-01-09T16:30:26.002Z,-11.93
2024-01-09T16:32:53.890Z,-11.99
2024-01-09T16:35:21.762Z,-12.06
2024-01-09T16:37:49.524Z,-12.12
2024-01-09T16:40:17.245Z,-12.20
2024-01-09T16:42:44.867Z,-12.28
2024-01-09T16:45:12.497Z,-12.35
2024-01-09T16:47:40.120Z,-12.44
2024-01-09T16:50:08.155Z,-12.53
2024-01-09T16:52:35.980Z,-12.57
2024-01-09T16:55:03.948Z,-12.61
2024-01-09T16:57:41.776Z,-12.67
2024-01-09T17:00:10.873Z,-12.74
2024-01-09T17:02:38.567Z,-12.81
2024-01-09T17:05:06.266Z,-12.89
2024-01-09T17:07:34.140Z,-12.97
2024-01-09T17:10:01.811Z,-13.05
2024-01-09T17:12:29.667Z,-13.15
2024-01-09T17:14:57.459Z,-13.25
2024-01-09T17:17:25.244Z,-13.34
2024-01-09T17:19:53.019Z,-13.42
2024-01-09T17:22:20.714Z,-13.51
2024-01-09T17:24:48.367Z,-13.57
2024-01-09T17:27:16.060Z,-13.63
2024-01-09T17:29:43.672Z,-13.69
2024-01-09T17:32:11.448Z,-13.75
2024-01-09T17:34:40.165Z,-13.79
2024-01-09T17:37:07.994Z,-13.84
2024-01-09T17:39:37.182Z,-13.90
2024-01-09T17:42:05.247Z,-13.97
2024-01-09T17:44:33.060Z,-14.03
2024-01-09T17:47:00.781Z,-14.10
2024-01-09T17:49:28.485Z,-14.14
2024-01-09T17:51:56.119Z,-14.16
2024-01-09T17:54:23.815Z,-14.19
2024-01-09T17:56:51.435Z,-14.23
2024-01-09T17:59:19.197Z,-14.28
2024-01-09T18:01:47.044Z,-14.31
2024-01-09T18:04:14.776Z,-14.35
2024-01-09T18:06:43.478Z,-14.40
2024-01-09T18:09:11.577Z,-14.41
2024-01-09T18:11:39.192Z,-14.42
2024-01-09T18:14:06.949Z,-14.45
2024-01-09T18:16:34.710Z,-14.48
2024-01-09T18:19:02.417Z,-14.53
2024-01-09T18:21:30.152Z,-14.59
2024-01-09T18:23:58.051Z,-14.61
2024-01-09T18:26:25.677Z,-14.65
2024-01-09T18:28:57.268Z,-14.66
2024-01-09T18:31:30.375Z,-14.68
2024-01-09T18:33:58.114Z,-14.72
2024-01-09T18:36:25.844Z,-14.77
2024-01-09T18:38:53.464Z,-14.83
2024-01-09T18:41:22.444Z,-14.89
2024-01-09T18:43:50.204Z,-14.96
2024-01-09T18:46:17.853Z,-15.01
2024-01-09T18:48:45.528Z,-15.07
2024-01-09T18:51:13.223Z,-15.11
2024-01-09T18:53:41.092Z,-15.15
2024-01-09T18:56:08.838Z,-15.19
2024-01-09T18:58:36.827Z,-15.23
2024-01-09T19:01:04.645Z,-15.25
2024-01-09T19:03:33.346Z,-15.26
2024-01-09T19:06:00.995Z,-15.27
2024-01-09T19:08:28.947Z,-15.25
2024-01-09T19:11:00.722Z,-15.24
2024-01-09T19:13:34.498Z,-15.25
2024-01-09T19:16:03.233Z,-15.27
2024-01-09T19:18:31.338Z,-15.31
2024-01-09T19:21:03.401Z,-15.34
2024-01-09T19:23:31.391Z,-15.35
2024-01-09T19:25:59.134Z,-15.37
2024-01-09T19:28:27.151Z,-15.42
2024-01-09T19:30:55.912Z,-15.47
2024-01-09T19:33:24.615Z,-15.51
2024-01-09T19:35:52.308Z,-15.56
2024-01-09T19:38:21.379Z,-15.60
2024-01-09T19:40:49.048Z,-15.63
2024-01-09T19:43:16.792Z,-15.66
2024-01-09T19:45:46.081Z,-15.68
2024-01-09T19:48:13.879Z,-15.67
2024-01-09T19:50:41.658Z,-15.66
2024-01-09T19:53:09.343Z,-15.67
2024-01-09T19:55:38.136Z,-15.74
2024-01-09T19:58:06.082Z,-15.80
2024-01-09T20:00:34.405Z,-15.83
2024-01-09T20:03:03.266Z,-15.87
2024-01-09T20:05:31.078Z,-15.92
2024-01-09T20:07:58.892Z,-15.96
2024-01-09T20:10:26.960Z,-16.04
2024-01-09T20:12:55.941Z,-16.07
2024-01-09T20:15:23.662Z,-16.08
2024-01-09T20:17:51.430Z,-16.06
2024-01-09T20:20:19.702Z,-16.06
2024-01-09T20:22:47.659Z,-16.08
2024-01-09T20:25:15.499Z,-16.11
2024-01-09T20:27:43.936Z,-16.13
2024-01-09T20:30:12.429Z,-16.16
2024-01-09T20:32:40.961Z,-16.18
2024-01-09T20:35:11.998Z,-16.23
2024-01-09T20:37:40.002Z,-16.29
2024-01-09T20:40:09.610Z,-16.34
2024-01-09T20:42:37.312Z,-16.40
2024-01-09T20:45:05.518Z,-16.46
2024-01-09T20:47:33.388Z,-16.51
2024-01-09T20:50:01.206Z,-16.55
2024-01-09T20:52:29.064Z,-16.60
2024-01-09T20:54:58.012Z,-16.67
2024-01-09T20:57:25.679Z,-16.72
2024-01-09T20:59:53.321Z,-16.78
2024-01-09T21:02:21.006Z,-16.85
2024-01-09T21:04:48.798Z,-16.90
2024-01-09T21:07:16.669Z,-16.96
2024-01-09T21:09:44.307Z,-16.99
2024-01-09T21:12:11.960Z,-17.05
2024-01-09T21:14:39.585Z,-17.09
2024-01-09T21:17:07.254Z,-17.12
2024-01-09T21:19:35.113Z,-17.16
2024-01-09T21:22:02.838Z,-17.20
2024-01-09T21:24:30.523Z,-17.26
2024-01-09T21:26:58.185Z,-17.30
2024-01-09T21:29:26.361Z,-17.28
2024-01-09T21:31:54.067Z,-17.26
2024-01-09T21:34:21.846Z,-17.26
2024-01-09T21:36:49.520Z,-17.27
2024-01-09T21:39:17.202Z,-17.27
2024-01-09T21:41:48.594Z,-17.28
2024-01-09T21:44:16.376Z,-17.30
2024-01-09T21:46:44.117Z,-17.33
2024-01-09T21:49:11.821Z,-17.35
2024-01-09T21:51:39.474Z,-17.37
2024-01-09T21:54:07.251Z,-17.37
2024-01-09T21:56:36.889Z,-17.39
2024-01-09T21:59:04.663Z,-17.42
2024-01-09T22:01:32.678Z,-17.44
2024-01-09T22:04:00.534Z,-17.48
2024-01-09T22:06:28.324Z,-17.51
2024-01-09T22:08:56.026Z,-17.54
2024-01-09T22:11:23.762Z,-17.53
2024-01-09T22:13:51.419Z,-17.55
2024-01-09T22:16:21.907Z,-17.54
2024-01-09T22:18:49.716Z,-17.55
2024-01-09T22:21:17.436Z,-17.56
2024-01-09T22:23:45.055Z,-17.57
2024-01-09T22:26:20.050Z,-17.58
2024-01-09T22:28:48.688Z,-17.60
2024-01-09T22:31:17.516Z,-17.61
2024-01-09T22:33:46.118Z,-17.61
2024-01-09T22:36:13.820Z,-17.61
2024-01-09T22:38:41.550Z,-17.60
2024-01-09T22:41:09.195Z,-17.57
2024-01-09T22:43:36.915Z,-17.54
2024-01-09T22:46:04.712Z,-17.49
2024-01-09T22:48:32.998Z,-17.44
2024-01-09T22:51:00.691Z,-17.39
2024-01-09T22:53:28.306Z,-17.34
2024-01-09T22:55:55.992Z,-17.31
2024-01-09T22:58:23.664Z,-17.29
2024-01-09T23:00:51.321Z,-17.27
2024-01-09T23:03:19.505Z,-17.25
2024-01-09T23:05:47.305Z,-17.23
2024-01-09T23:08:15.171Z,-17.20
2024-01-09T23:10:42.892Z,-17.17
2024-01-09T23:13:10.559Z,-17.17
2024-01-09T23:15:38.222Z,-17.18
2024-01-09T23:18:06.394Z,-17.19
2024-01-09T23:20:34.326Z,-17.23
2024-01-09T23:23:02.692Z,-17.25
2024-01-09T23:25:30.416Z,-17.27
2024-01-09T23:27:58.217Z,-17.28
2024-01-09T23:30:25.912Z,-17.29
2024-01-09T23:32:55.173Z,-17.33
2024-01-09T23:35:24.358Z,-17.38
2024-01-09T23:37:52.042Z,-17.43
2024-01-09T23:40:19.737Z,-17.48
2024-01-09T23:42:47.351Z,-17.51
2024-01-09T23:45:15.010Z,-17.54
2024-01-09T23:47:42.776Z,-17.56
2024-01-09T23:50:10.828Z,-17.58
2024-01-09T23:52:38.578Z,-17.55
2024-01-09T23:55:07.026Z,-17.53
2024-01-09T23:57:34.803Z,-17.49
